Time;durP1;ratioP1;P1;durP2;ratioP2;P2;SDS_P1;SDS_P2;PMS_P1;PMS_P2;Temp;Humidity;BMP_temperature;BMP_pressure;BME280_temperature;BME280_humidity;BME280_pressure;Samples;Min_cycle;Max_cycle;Signal;HPM_P1;HPM_P2
2024/02/05 00:00:09;;;;;;;;;;;;;;;4.35;74.93;100422.41;107574;1250;97738;-63
2024/02/05 00:02:58;;;;;;;;;;;;;;;4.33;75.07;100430.38;107602;1251;112801;-63
2024/02/05 00:05:26;;;;;;;;;;;;;;;4.33;75.42;100441.23;107630;1254;108071;-62
2024/02/05 00:07:55;;;;;;;;;;;;;;;4.31;75.54;100435.67;107629;1251;107513;-62
2024/02/05 00:10:27;;;;;;;;;;;;;;;4.31;75.80;100417.75;107600;1251;97840;-62
2024/02/05 00:12:55;;;;;;;;;;;;;;;4.28;76.00;100409.23;107580;1251;97825;-63
2024/02/05 00:15:23;;;;;;;;;;;;;;;4.29;75.84;100408.80;107603;1251;110643;-64
2024/02/05 00:17:51;;;;;;;;;;;;;;;4.31;76.34;100407.63;107592;1250;108442;-64
2024/02/05 00:20:19;;;;;;;;;;;;;;;4.34;76.53;100407.44;107578;1251;107818;-64
2024/02/05 00:22:47;;;;;;;;;;;;;;;4.36;76.83;100406.52;107525;1251;97851;-62
2024/02/05 00:25:16;;;;;;;;;;;;;;;4.38;76.60;100405.34;107515;1250;97699;-62
2024/02/05 00:27:44;;;;;;;;;;;;;;;4.38;76.48;100403.55;107543;1251;111436;-62
2024/02/05 00:30:13;;;;;;;;;;;;;;;4.36;76.52;100399.98;107558;1251;108961;-61
2024/02/05 00:32:41;;;;;;;;;;;;;;;4.38;76.97;100385.47;107557;1251;107444;-62
2024/02/05 00:35:09;;;;;;;;;;;;;;;4.40;76.55;100374.16;107494;1251;97871;-62
2024/02/05 00:37:38;;;;;;;;;;;;;;;4.44;76.78;100369.31;107684;1251;97832;-63
2024/02/05 00:40:07;;;;;;;;;;;;;;;4.48;77.22;100363.46;107483;1251;113181;-64
2024/02/05 00:42:35;;;;;;;;;;;;;;;4.55;77.52;100358.41;107527;1251;107672;-62
2024/02/05 00:45:05;;;;;;;;;;;;;;;4.61;77.75;100345.58;107480;1250;107507;-62
2024/02/05 00:47:33;;;;;;;;;;;;;;;4.66;77.99;100339.67;107502;1251;97821;-62
2024/02/05 00:50:01;;;;;;;;;;;;;;;4.70;77.62;100336.23;107462;1251;98042;-66
2024/02/05 00:52:30;;;;;;;;;;;;;;;4.72;77.73;100338.23;107546;1251;111914;-64
2024/02/05 00:54:58;;;;;;;;;;;;;;;4.73;77.84;100338.67;107622;1254;108279;-64
2024/02/05 00:57:26;;;;;;;;;;;;;;;4.73;77.57;100338.35;107640;1250;108369;-64
2024/02/05 00:59:54;;;;;;;;;;;;;;;4.73;77.41;100332.11;107502;1251;97904;-63
2024/02/05 01:02:23;;;;;;;;;;;;;;;4.74;77.40;100325.29;107534;1251;97804;-62
2024/02/05 01:04:51;;;;;;;;;;;;;;;4.76;77.92;100321.78;107573;1251;111851;-63
2024/02/05 01:07:20;;;;;;;;;;;;;;;4.80;77.95;100315.98;107544;1251;108962;-62
2024/02/05 01:09:48;;;;;;;;;;;;;;;4.82;77.70;100321.48;107471;1251;108744;-63
2024/02/05 01:12:16;;;;;;;;;;;;;;;4.85;77.84;100321.95;107474;1253;97704;-65
2024/02/05 01:14:44;;;;;;;;;;;;;;;4.89;78.04;100325.05;107548;1251;97896;-65
2024/02/05 01:17:13;;;;;;;;;;;;;;;4.90;77.72;100335.16;107512;1250;112292;-65
2024/02/05 01:19:41;;;;;;;;;;;;;;;4.82;77.40;100358.98;107505;1254;107938;-65
2024/02/05 01:22:09;;;;;;;;;;;;;;;4.73;77.18;100371.20;107455;1251;107669;-63
2024/02/05 01:24:37;;;;;;;;;;;;;;;4.64;77.09;100374.65;107537;1250;97831;-64
2024/02/05 01:27:05;;;;;;;;;;;;;;;4.57;77.52;100359.48;107504;1254;97687;-63
2024/02/05 01:29:34;;;;;;;;;;;;;;;4.51;77.86;100357.27;107529;1251;111814;-63
2024/02/05 01:32:02;;;;;;;;;;;;;;;4.45;78.02;100348.61;107498;1251;108670;-63
2024/02/05 01:34:30;;;;;;;;;;;;;;;4.41;78.31;100336.30;107542;1251;107358;-62
2024/02/05 01:36:59;;;;;;;;;;;;;;;4.45;78.94;100338.28;107500;1251;97727;-63
2024/02/05 01:39:27;;;;;;;;;;;;;;;4.56;79.28;100327.59;107618;1253;97729;-62
2024/02/05 01:41:55;;;;;;;;;;;;;;;4.64;78.87;100324.00;107625;1254;110838;-63
2024/02/05 01:44:24;;;;;;;;;;;;;;;4.72;79.32;100316.73;107502;1253;106559;-63
2024/02/05 01:46:52;;;;;;;;;;;;;;;4.79;79.61;100316.54;107609;1253;108379;-64
2024/02/05 01:49:22;;;;;;;;;;;;;;;4.85;79.55;100314.01;107573;1253;97900;-64
2024/02/05 01:51:51;;;;;;;;;;;;;;;4.86;79.33;100309.14;107617;1254;97855;-65
2024/02/05 01:54:21;;;;;;;;;;;;;;;4.89;79.42;100310.34;107533;1250;111857;-62
2024/02/05 01:56:51;;;;;;;;;;;;;;;4.92;79.53;100307.63;107566;1251;107216;-63
2024/02/05 01:59:19;;;;;;;;;;;;;;;4.92;79.64;100306.98;107541;1251;107176;-62
2024/02/05 02:01:48;;;;;;;;;;;;;;;4.93;79.78;100313.58;107505;1252;97848;-63
2024/02/05 02:04:16;;;;;;;;;;;;;;;4.95;80.07;100317.88;107498;1250;97746;-63
2024/02/05 02:06:45;;;;;;;;;;;;;;;4.96;80.03;100324.44;107535;1251;112488;-63
2024/02/05 02:09:13;;;;;;;;;;;;;;;4.95;79.86;100338.18;107444;1251;108198;-63
2024/02/05 02:11:42;;;;;;;;;;;;;;;4.89;79.35;100338.63;107471;1251;108463;-64
2024/02/05 02:14:10;;;;;;;;;;;;;;;4.83;79.51;100340.61;107580;1251;97733;-64
2024/02/05 02:16:38;;;;;;;;;;;;;;;4.73;79.49;100341.64;107659;1251;97866;-64
2024/02/05 02:19:27;;;;;;;;;;;;;;;4.66;80.10;100344.29;107563;1254;111918;-65
2024/02/05 02:22:04;;;;;;;;;;;;;;;4.58;80.37;100343.48;107606;1254;108590;-65
2024/02/05 02:24:34;;;;;;;;;;;;;;;4.51;80.26;100341.77;107557;1251;108415;-63
2024/02/05 02:27:02;;;;;;;;;;;;;;;4.52;80.98;100348.68;107552;1251;97850;-64
2024/02/05 02:29:30;;;;;;;;;;;;;;;4.50;81.42;100348.95;107606;1251;97723;-63
2024/02/05 02:32:07;;;;;;;;;;;;;;;4.51;82.03;100341.05;107598;1251;111831;-63
2024/02/05 02:34:39;;;;;;;;;;;;;;;4.53;82.20;100344.30;107613;1254;108288;-62
2024/02/05 02:37:10;;;;;;;;;;;;;;;4.55;82.13;100345.80;107578;1254;106888;-63
2024/02/05 02:39:44;;;;;;;;;;;;;;;4.57;82.15;100350.45;107551;1251;97851;-62
2024/02/05 02:42:14;;;;;;;;;;;;;;;4.52;81.53;100348.29;107628;1252;97854;-63
2024/02/05 02:44:43;;;;;;;;;;;;;;;4.51;82.74;100346.97;107626;1251;110627;-64
2024/02/05 02:47:11;;;;;;;;;;;;;;;4.53;83.45;100353.58;107620;1251;108358;-63
2024/02/05 02:49:39;;;;;;;;;;;;;;;4.51;83.92;100357.41;107547;1250;107833;-64
2024/02/05 02:52:07;;;;;;;;;;;;;;;4.53;84.45;100353.56;107575;1253;98492;-65
2024/02/05 02:54:36;;;;;;;;;;;;;;;4.55;83.68;100344.73;107639;1251;97707;-63
2024/02/05 02:57:04;;;;;;;;;;;;;;;4.52;83.75;100348.47;107593;1251;112199;-63
2024/02/05 02:59:32;;;;;;;;;;;;;;;4.51;84.46;100356.87;107649;1251;108012;-62
2024/02/05 03:02:01;;;;;;;;;;;;;;;4.52;84.59;100365.17;107591;1251;108099;-63
2024/02/05 03:04:29;;;;;;;;;;;;;;;4.51;85.24;100369.13;107577;1250;97911;-63
2024/02/05 03:06:57;;;;;;;;;;;;;;;4.48;85.70;100369.02;107581;1251;97835;-64
2024/02/05 03:09:25;;;;;;;;;;;;;;;4.44;86.96;100362.16;107552;1251;111167;-63
2024/02/05 03:11:53;;;;;;;;;;;;;;;4.41;89.80;100363.83;107602;1251;107782;-65
2024/02/05 03:14:25;;;;;;;;;;;;;;;4.40;91.54;100342.71;107599;1254;107041;-64
2024/02/05 03:16:55;;;;;;;;;;;;;;;4.42;92.68;100339.95;107623;1250;98469;-63
2024/02/05 03:19:23;;;;;;;;;;;;;;;4.46;93.98;100332.18;107637;1251;97893;-62
2024/02/05 03:21:52;;;;;;;;;;;;;;;4.47;94.15;100318.45;107658;1250;110965;-62
2024/02/05 03:24:20;;;;;;;;;;;;;;;4.50;93.61;100313.48;107619;1251;108252;-62
2024/02/05 03:26:48;;;;;;;;;;;;;;;4.51;93.48;100304.52;107510;1253;108192;-62
2024/02/05 03:29:17;;;;;;;;;;;;;;;4.53;93.09;100288.89;107532;1253;97829;-62
2024/02/05 03:31:45;;;;;;;;;;;;;;;4.56;92.00;100277.67;107571;1251;97848;-62
2024/02/05 03:34:13;;;;;;;;;;;;;;;4.58;92.23;100281.14;107635;1250;111638;-63
2024/02/05 03:36:41;;;;;;;;;;;;;;;4.58;92.54;100269.36;107668;1251;107363;-62
2024/02/05 03:39:10;;;;;;;;;;;;;;;4.59;93.02;100259.94;107613;1251;107873;-64
2024/02/05 03:41:39;;;;;;;;;;;;;;;4.59;93.59;100261.52;107627;1251;97847;-64
2024/02/05 03:44:07;;;;;;;;;;;;;;;4.58;93.35;100250.39;107625;1254;97800;-64
2024/02/05 03:46:35;;;;;;;;;;;;;;;4.58;93.57;100253.91;107641;1251;111429;-64
2024/02/05 03:49:03;;;;;;;;;;;;;;;4.54;93.93;100261.64;107569;1250;108186;-63
2024/02/05 03:51:31;;;;;;;;;;;;;;;4.52;93.90;100264.09;107561;1250;108276;-63
2024/02/05 03:54:04;;;;;;;;;;;;;;;4.53;93.93;100262.58;107521;1253;97815;-63
2024/02/05 03:56:33;;;;;;;;;;;;;;;4.53;93.91;100262.64;107675;1254;97838;-63
2024/02/05 03:59:02;;;;;;;;;;;;;;;4.50;93.83;100257.11;107550;1251;110521;-63
2024/02/05 04:01:30;;;;;;;;;;;;;;;4.49;93.22;100245.66;107529;1251;108332;-63
2024/02/05 04:03:58;;;;;;;;;;;;;;;4.49;92.97;100244.62;107568;1251;108769;-63
2024/02/05 04:06:27;;;;;;;;;;;;;;;4.41;92.54;100244.51;107571;1254;97917;-65
2024/02/05 04:08:55;;;;;;;;;;;;;;;4.38;92.15;100249.67;107551;1250;97812;-65
2024/02/05 04:11:23;;;;;;;;;;;;;;;4.34;92.15;100247.25;107603;1251;111028;-64
2024/02/05 04:13:52;;;;;;;;;;;;;;;4.35;92.14;100248.80;107548;1251;108986;-64
2024/02/05 04:16:20;;;;;;;;;;;;;;;4.35;91.83;100249.64;107534;1251;108156;-64
2024/02/05 04:18:48;;;;;;;;;;;;;;;4.38;91.50;100248.10;107556;1251;97824;-63
2024/02/05 04:21:16;;;;;;;;;;;;;;;4.41;91.40;100242.92;107581;1251;97924;-63
2024/02/05 04:23:44;;;;;;;;;;;;;;;4.41;91.07;100237.20;107656;1251;110887;-63
2024/02/05 04:26:14;;;;;;;;;;;;;;;4.46;91.08;100240.92;107561;1253;108312;-63
2024/02/05 04:28:42;;;;;;;;;;;;;;;4.50;91.12;100248.83;107619;1251;107320;-63
2024/02/05 04:31:12;;;;;;;;;;;;;;;4.55;90.88;100250.61;107555;1254;97813;-64
2024/02/05 04:33:41;;;;;;;;;;;;;;;4.54;90.63;100250.45;107669;1250;97879;-64
2024/02/05 04:36:11;;;;;;;;;;;;;;;4.51;90.14;100247.98;107534;1250;111794;-64
2024/02/05 04:38:40;;;;;;;;;;;;;;;4.50;89.88;100239.40;107606;1256;107211;-64
2024/02/05 04:41:09;;;;;;;;;;;;;;;4.50;89.93;100234.80;107570;1251;106853;-63
2024/02/05 04:43:38;;;;;;;;;;;;;;;4.51;89.76;100235.27;107569;1251;97834;-63
2024/02/05 04:46:07;;;;;;;;;;;;;;;4.54;89.64;100238.94;107563;1251;97722;-63
2024/02/05 04:48:36;;;;;;;;;;;;;;;4.57;89.35;100248.30;107558;1251;112116;-62
2024/02/05 04:51:14;;;;;;;;;;;;;;;4.58;89.05;100248.05;107564;1251;108577;-63
2024/02/05 04:53:42;;;;;;;;;;;;;;;4.60;88.92;100255.41;107549;1255;107779;-66
2024/02/05 04:56:10;;;;;;;;;;;;;;;4.61;88.86;100248.39;107602;1251;97855;-62
2024/02/05 04:58:39;;;;;;;;;;;;;;;4.65;88.89;100254.70;107614;1251;98044;-63
2024/02/05 05:01:07;;;;;;;;;;;;;;;4.67;88.87;100257.52;107566;1251;112026;-65
2024/02/05 05:03:39;;;;;;;;;;;;;;;4.69;88.65;100258.61;107602;1251;108398;-64
2024/02/05 05:06:08;;;;;;;;;;;;;;;4.71;88.50;100263.66;107511;1254;107744;-65
2024/02/05 05:08:36;;;;;;;;;;;;;;;4.72;88.38;100271.58;107536;1251;97853;-66
2024/02/05 05:11:04;;;;;;;;;;;;;;;4.71;88.12;100272.02;107616;1251;97893;-66
2024/02/05 05:13:32;;;;;;;;;;;;;;;4.72;88.15;100273.90;107595;1250;113251;-64
2024/02/05 05:16:04;;;;;;;;;;;;;;;4.72;88.07;100274.59;107580;1251;108314;-64
2024/02/05 05:18:32;;;;;;;;;;;;;;;4.73;87.73;100274.38;107639;1251;108173;-66
2024/02/05 05:21:00;;;;;;;;;;;;;;;4.71;87.35;100262.74;107571;1254;97911;-66
2024/02/05 05:23:28;;;;;;;;;;;;;;;4.67;87.13;100253.97;107657;1254;97850;-63
2024/02/05 05:25:56;;;;;;;;;;;;;;;4.65;86.94;100250.91;107623;1253;111356;-64
2024/02/05 05:28:24;;;;;;;;;;;;;;;4.65;86.89;100242.96;107602;1254;108618;-63
2024/02/05 05:30:53;;;;;;;;;;;;;;;4.66;87.04;100236.62;107594;1254;108034;-63
2024/02/05 05:33:21;;;;;;;;;;;;;;;4.63;86.75;100238.27;107612;1251;97919;-63
2024/02/05 05:35:50;;;;;;;;;;;;;;;4.61;86.64;100242.34;107573;1250;97792;-64
2024/02/05 05:38:18;;;;;;;;;;;;;;;4.59;86.57;100238.61;107513;1251;112174;-63
2024/02/05 05:40:47;;;;;;;;;;;;;;;4.59;86.63;100240.55;107607;1254;108546;-64
2024/02/05 05:43:15;;;;;;;;;;;;;;;4.60;86.57;100234.09;107552;1253;107098;-64
2024/02/05 05:45:44;;;;;;;;;;;;;;;4.61;86.79;100229.02;107597;1252;97860;-65
2024/02/05 05:48:12;;;;;;;;;;;;;;;4.62;86.50;100232.35;107624;1251;97816;-63
2024/02/05 05:50:41;;;;;;;;;;;;;;;4.59;86.26;100227.42;107569;1254;111011;-63
2024/02/05 05:53:09;;;;;;;;;;;;;;;4.57;85.98;100219.39;107555;1251;108505;-63
2024/02/05 05:55:37;;;;;;;;;;;;;;;4.52;85.69;100226.79;107564;1251;107572;-62
2024/02/05 05:58:06;;;;;;;;;;;;;;;4.50;85.82;100239.77;107578;1251;97892;-62
2024/02/05 06:00:34;;;;;;;;;;;;;;;4.48;85.84;100233.11;107561;1254;97821;-63
2024/02/05 06:03:06;;;;;;;;;;;;;;;4.48;85.68;100235.63;107439;1254;111938;-65
2024/02/05 06:05:34;;;;;;;;;;;;;;;4.43;85.45;100238.98;107560;1251;107661;-65
2024/02/05 06:08:02;;;;;;;;;;;;;;;4.40;85.50;100239.58;107447;1251;107889;-64
2024/02/05 06:10:30;;;;;;;;;;;;;;;4.38;85.40;100236.19;107487;1254;98524;-64
2024/02/05 06:12:59;;;;;;;;;;;;;;;4.38;85.47;100231.35;107520;1251;97890;-64
2024/02/05 06:15:28;;;;;;;;;;;;;;;4.39;85.42;100230.02;107469;1251;111874;-63
2024/02/05 06:17:56;;;;;;;;;;;;;;;4.39;85.30;100231.11;107487;1251;107659;-63
2024/02/05 06:20:24;;;;;;;;;;;;;;;4.39;85.17;100228.67;107436;1251;108358;-63
2024/02/05 06:22:52;;;;;;;;;;;;;;;4.39;85.30;100230.25;107482;1254;97934;-63
2024/02/05 06:25:20;;;;;;;;;;;;;;;4.39;85.20;100232.55;107575;1256;98579;-63
2024/02/05 06:27:49;;;;;;;;;;;;;;;4.39;85.27;100225.93;107530;1251;112263;-62
2024/02/05 06:30:17;;;;;;;;;;;;;;;4.44;85.46;100221.89;107500;1251;108663;-63
2024/02/05 06:32:45;;;;;;;;;;;;;;;4.48;85.80;100221.44;107412;1252;108441;-62
2024/02/05 06:35:14;;;;;;;;;;;;;;;4.50;85.66;100218.58;107490;1254;97842;-62
2024/02/05 06:37:42;;;;;;;;;;;;;;;4.55;85.61;100218.10;107513;1253;97719;-64
2024/02/05 06:40:10;;;;;;;;;;;;;;;4.61;86.06;100224.36;107475;1256;113056;-65
2024/02/05 06:42:38;;;;;;;;;;;;;;;4.67;85.88;100216.16;107523;1251;107274;-66
2024/02/05 06:45:09;;;;;;;;;;;;;;;4.75;85.94;100221.98;107512;1254;108305;-63
2024/02/05 06:47:38;;;;;;;;;;;;;;;4.85;85.91;100227.13;107458;1254;97916;-65
2024/02/05 06:50:08;;;;;;;;;;;;;;;4.91;85.60;100218.52;107461;1254;97838;-65
2024/02/05 06:52:36;;;;;;;;;;;;;;;4.94;85.11;100213.86;107496;1253;111218;-64
2024/02/05 06:55:04;;;;;;;;;;;;;;;4.99;85.47;100231.96;107516;1254;108631;-63
2024/02/05 06:57:34;;;;;;;;;;;;;;;5.05;85.57;100229.78;107528;1255;108193;-63
2024/02/05 07:00:03;;;;;;;;;;;;;;;5.12;85.75;100208.08;107395;1253;97849;-62
2024/02/05 07:02:31;;;;;;;;;;;;;;;5.16;85.37;100208.81;107503;1251;97732;-63
2024/02/05 07:05:01;;;;;;;;;;;;;;;5.23;85.51;100209.02;107685;1251;111638;-63
2024/02/05 07:07:29;;;;;;;;;;;;;;;5.31;85.37;100202.02;107625;1253;106110;-63
2024/02/05 07:10:00;;;;;;;;;;;;;;;5.38;85.41;100198.81;107551;1254;107939;-63
2024/02/05 07:12:28;;;;;;;;;;;;;;;5.47;85.02;100188.93;107573;1256;97951;-64
2024/02/05 07:14:56;;;;;;;;;;;;;;;5.56;84.95;100183.07;107629;1254;97738;-65
2024/02/05 07:17:34;;;;;;;;;;;;;;;5.66;85.06;100186.06;107562;1254;112363;-65
2024/02/05 07:20:03;;;;;;;;;;;;;;;5.74;84.84;100180.95;107608;1253;107823;-65
2024/02/05 07:22:31;;;;;;;;;;;;;;;5.85;84.81;100179.98;107514;1254;107497;-65
2024/02/05 07:24:59;;;;;;;;;;;;;;;5.92;84.51;100179.77;107560;1253;98112;-65
2024/02/05 07:27:28;;;;;;;;;;;;;;;6.02;84.35;100166.20;107537;1254;97910;-63
2024/02/05 07:29:56;;;;;;;;;;;;;;;6.10;84.00;100162.56;107614;1254;111122;-64
2024/02/05 07:32:24;;;;;;;;;;;;;;;6.16;83.82;100153.71;107696;1254;108309;-64
2024/02/05 07:34:53;;;;;;;;;;;;;;;6.22;83.46;100155.19;107590;1255;108417;-64
2024/02/05 07:37:21;;;;;;;;;;;;;;;6.32;83.46;100149.70;107503;1252;97934;-64
2024/02/05 07:39:50;;;;;;;;;;;;;;;6.43;83.31;100144.74;107614;1254;97716;-65
2024/02/05 07:42:18;;;;;;;;;;;;;;;6.55;83.32;100138.27;107585;1255;110770;-65
2024/02/05 07:44:46;;;;;;;;;;;;;;;6.69;83.09;100132.18;107579;1253;108470;-66
2024/02/05 07:47:15;;;;;;;;;;;;;;;6.81;82.67;100135.46;107530;1256;108187;-66
2024/02/05 07:49:43;;;;;;;;;;;;;;;6.93;82.56;100130.36;107491;1254;97853;-66
2024/02/05 07:52:11;;;;;;;;;;;;;;;7.09;82.69;100118.69;107494;1256;97862;-64
2024/02/05 07:54:39;;;;;;;;;;;;;;;7.23;80.35;100118.95;107505;1254;111279;-65
2024/02/05 07:57:07;;;;;;;;;;;;;;;7.31;80.17;100121.13;107492;1253;107090;-65
2024/02/05 07:59:35;;;;;;;;;;;;;;;7.42;79.92;100112.64;107499;1252;108530;-63
2024/02/05 08:02:04;;;;;;;;;;;;;;;7.51;79.67;100116.14;107422;1254;97870;-64
2024/02/05 08:04:32;;;;;;;;;;;;;;;7.66;79.07;100100.42;107588;1253;97851;-65
2024/02/05 08:07:02;;;;;;;;;;;;;;;7.83;78.06;100098.63;107511;1255;110924;-64
2024/02/05 08:09:31;;;;;;;;;;;;;;;7.98;78.32;100106.08;107522;1254;106713;-63
2024/02/05 08:12:03;;;;;;;;;;;;;;;8.10;77.89;100098.73;107486;1253;108033;-63
2024/02/05 08:14:31;;;;;;;;;;;;;;;8.22;77.43;100102.50;107450;1255;97826;-63
2024/02/05 08:16:59;;;;;;;;;;;;;;;8.29;76.56;100090.80;107485;1253;97733;-63
2024/02/05 08:19:27;;;;;;;;;;;;;;;8.36;75.76;100083.77;107522;1254;111783;-65
2024/02/05 08:21:56;;;;;;;;;;;;;;;8.45;75.92;100072.91;107516;1255;108291;-66
2024/02/05 08:24:25;;;;;;;;;;;;;;;8.58;75.55;100067.35;107468;1254;108188;-66
2024/02/05 08:26:53;;;;;;;;;;;;;;;8.71;75.74;100071.16;107527;1254;97847;-66
2024/02/05 08:29:22;;;;;;;;;;;;;;;8.82;74.47;100058.50;107455;1254;97812;-65
2024/02/05 08:31:51;;;;;;;;;;;;;;;8.89;74.26;100055.17;107467;1256;111019;-64
2024/02/05 08:34:20;;;;;;;;;;;;;;;8.96;74.37;100052.06;107528;1255;108580;-63
2024/02/05 08:36:48;;;;;;;;;;;;;;;9.04;73.94;100055.17;107563;1251;107843;-63
2024/02/05 08:39:16;;;;;;;;;;;;;;;9.17;73.81;100057.05;107512;1251;97825;-64
2024/02/05 08:41:45;;;;;;;;;;;;;;;9.30;72.54;100052.80;107526;1251;97932;-64
2024/02/05 08:44:13;;;;;;;;;;;;;;;9.54;73.40;100053.61;107477;1251;111716;-64
2024/02/05 08:46:41;;;;;;;;;;;;;;;9.79;72.29;100048.29;106518;1251;1368317;-65
2024/02/05 08:49:12;;;;;;;;;;;;;;;9.99;70.90;100046.60;107500;1251;97826;-65
2024/02/05 08:51:40;;;;;;;;;;;;;;;10.14;69.38;100044.71;107531;1250;97740;-65
2024/02/05 08:54:09;;;;;;;;;;;;;;;10.22;67.98;100046.52;107525;1251;97873;-65
2024/02/05 08:56:37;;;;;;;;;;;;;;;10.27;67.59;100044.59;107534;1250;111834;-65
2024/02/05 08:59:05;;;;;;;;;;;;;;;10.36;67.84;100039.35;107494;1251;108349;-65
2024/02/05 09:01:33;;;;;;;;;;;;;;;10.46;66.28;100035.20;107521;1254;107569;-65
2024/02/05 09:04:02;;;;;;;;;;;;;;;10.61;65.15;100027.80;107505;1251;97902;-64
2024/02/05 09:06:30;;;;;;;;;;;;;;;10.78;64.86;100021.95;107513;1251;97717;-64
2024/02/05 09:08:59;;;;;;;;;;;;;;;10.93;63.73;100020.08;107488;1251;112209;-64
2024/02/05 09:11:31;;;;;;;;;;;;;;;10.92;63.51;100017.52;107591;1251;108375;-64
2024/02/05 09:14:04;;;;;;;;;;;;;;;10.93;64.23;100014.86;107461;1251;107484;-64
2024/02/05 09:16:33;;;;;;;;;;;;;;;10.94;63.58;100012.28;107455;1256;97729;-64
2024/02/05 09:19:01;;;;;;;;;;;;;;;10.94;61.83;100008.19;107497;1254;97704;-63
2024/02/05 09:21:29;;;;;;;;;;;;;;;10.95;61.82;100001.00;107514;1251;111486;-63
2024/02/05 09:23:57;;;;;;;;;;;;;;;10.97;60.78;99998.92;107575;1251;108128;-64
2024/02/05 09:26:26;;;;;;;;;;;;;;;10.98;61.78;99998.63;107520;1251;107537;-62
2024/02/05 09:28:54;;;;;;;;;;;;;;;11.10;62.08;99997.87;107464;1256;97963;-62
2024/02/05 09:31:22;;;;;;;;;;;;;;;11.22;62.06;99994.33;107506;1251;97703;-63
2024/02/05 09:33:50;;;;;;;;;;;;;;;11.31;62.04;99992.13;107522;1251;112026;-63
2024/02/05 09:36:20;;;;;;;;;;;;;;;11.44;60.34;99983.64;107540;1250;107957;-62
2024/02/05 09:38:48;;;;;;;;;;;;;;;11.71;60.01;99974.81;107512;1252;108590;-63
2024/02/05 09:41:20;;;;;;;;;;;;;;;12.02;59.87;99969.44;107483;1253;97903;-63
2024/02/05 09:43:50;;;;;;;;;;;;;;;12.42;60.61;99964.58;107536;1251;97844;-64
2024/02/05 09:46:21;;;;;;;;;;;;;;;12.90;60.96;99958.05;107486;1251;111746;-62
2024/02/05 09:48:51;;;;;;;;;;;;;;;13.30;58.96;99963.57;107631;1251;107880;-63
2024/02/05 09:51:21;;;;;;;;;;;;;;;13.49;53.69;99959.06;107446;1251;107363;-63
2024/02/05 09:53:49;;;;;;;;;;;;;;;13.42;54.48;99951.21;107493;1251;97845;-64
2024/02/05 09:56:19;;;;;;;;;;;;;;;13.26;55.53;99942.45;107451;1251;97716;-63
2024/02/05 09:58:47;;;;;;;;;;;;;;;13.12;54.65;99941.61;107622;1251;111016;-64
2024/02/05 10:01:16;;;;;;;;;;;;;;;13.00;53.64;99940.46;107597;1251;107937;-64
2024/02/05 10:03:46;;;;;;;;;;;;;;;12.81;53.55;99939.48;107627;1251;108243;-65
2024/02/05 10:06:17;;;;;;;;;;;;;;;12.62;53.21;99940.11;107596;1251;97902;-65
2024/02/05 10:08:51;;;;;;;;;;;;;;;12.42;53.44;99944.48;107638;1255;97942;-64
2024/02/05 10:11:20;;;;;;;;;;;;;;;12.16;53.45;99944.39;107479;1253;112194;-65
2024/02/05 10:13:48;;;;;;;;;;;;;;;11.91;54.55;99939.85;107595;1254;107345;-63
2024/02/05 10:16:17;;;;;;;;;;;;;;;11.80;55.10;99947.00;107632;1252;107352;-63
2024/02/05 10:18:45;;;;;;;;;;;;;;;11.70;55.83;99946.42;107608;1251;97800;-63
2024/02/05 10:21:14;;;;;;;;;;;;;;;11.59;56.04;99943.06;107652;1251;97735;-63
2024/02/05 10:23:50;;;;;;;;;;;;;;;11.45;56.11;99954.05;107627;1251;109963;-65
2024/02/05 10:26:18;;;;;;;;;;;;;;;11.35;56.70;99953.84;107580;1253;109314;-65
2024/02/05 10:28:46;;;;;;;;;;;;;;;11.33;56.23;99939.77;107585;1251;108528;-64
2024/02/05 10:31:16;;;;;;;;;;;;;;;11.30;55.59;99949.40;107561;1254;97834;-65
2024/02/05 10:33:45;;;;;;;;;;;;;;;11.23;55.85;99943.02;107583;1251;97751;-66
2024/02/05 10:36:18;;;;;;;;;;;;;;;11.19;56.55;99941.31;107655;1252;111628;-64
2024/02/05 10:38:47;;;;;;;;;;;;;;;11.19;56.80;99939.36;107587;1251;107912;-64
2024/02/05 10:41:15;;;;;;;;;;;;;;;11.16;56.56;99938.23;107602;1251;107997;-64
2024/02/05 10:43:47;;;;;;;;;;;;;;;11.10;56.55;99939.39;107563;1251;97908;-65
2024/02/05 10:46:15;;;;;;;;;;;;;;;11.07;56.96;99943.67;107622;1251;97848;-64
2024/02/05 10:48:45;;;;;;;;;;;;;;;11.03;56.76;99946.95;107661;1251;111886;-65
2024/02/05 10:51:14;;;;;;;;;;;;;;;11.00;57.26;99947.25;107620;1251;107903;-64
2024/02/05 10:53:43;;;;;;;;;;;;;;;11.02;57.77;99941.33;107618;1255;107565;-65
2024/02/05 10:56:13;;;;;;;;;;;;;;;11.05;57.66;99941.31;107576;1251;97819;-65
2024/02/05 10:58:42;;;;;;;;;;;;;;;11.11;57.50;99936.39;107545;1251;97900;-65
2024/02/05 11:01:14;;;;;;;;;;;;;;;11.20;57.71;99928.33;107569;1251;111536;-65
2024/02/05 11:03:43;;;;;;;;;;;;;;;11.26;57.66;99923.71;107602;1251;106124;-64
2024/02/05 11:06:12;;;;;;;;;;;;;;;11.27;57.09;99931.86;107550;1256;107652;-65
2024/02/05 11:08:41;;;;;;;;;;;;;;;11.31;56.77;99934.39;107629;1251;97854;-65
2024/02/05 11:11:12;;;;;;;;;;;;;;;11.35;56.75;99934.28;107556;1251;97730;-65
2024/02/05 11:13:40;;;;;;;;;;;;;;;11.37;57.03;99935.67;107514;1251;111862;-65
2024/02/05 11:16:09;;;;;;;;;;;;;;;11.39;57.19;99931.38;107559;1251;108690;-66
2024/02/05 11:18:40;;;;;;;;;;;;;;;11.44;56.87;99929.03;107561;1251;109162;-65
2024/02/05 11:21:09;;;;;;;;;;;;;;;11.48;56.83;99925.07;107614;1251;97860;-63
2024/02/05 11:23:38;;;;;;;;;;;;;;;11.48;56.73;99922.21;107638;1254;97939;-64
2024/02/05 11:26:06;;;;;;;;;;;;;;;11.53;56.90;99918.20;107550;1252;111848;-65
2024/02/05 11:28:35;;;;;;;;;;;;;;;11.63;57.28;99924.52;107551;1251;109262;-64
2024/02/05 11:31:07;;;;;;;;;;;;;;;11.73;57.00;99928.98;107618;1251;107635;-64
2024/02/05 11:33:37;;;;;;;;;;;;;;;11.80;56.45;99933.68;107597;1251;97809;-65
2024/02/05 11:36:13;;;;;;;;;;;;;;;11.91;56.85;99926.00;107582;1250;97900;-64
2024/02/05 11:38:41;;;;;;;;;;;;;;;12.09;56.42;99926.15;107621;1251;111036;-64
2024/02/05 11:41:10;;;;;;;;;;;;;;;12.25;56.77;99911.77;107631;1255;108579;-64
2024/02/05 11:43:38;;;;;;;;;;;;;;;12.34;56.83;99906.08;107522;1251;108383;-63
2024/02/05 11:46:07;;;;;;;;;;;;;;;12.42;57.11;99904.35;107598;1251;97914;-63
2024/02/05 11:48:37;;;;;;;;;;;;;;;12.43;56.74;99904.48;107597;1251;97998;-63
2024/02/05 11:51:07;;;;;;;;;;;;;;;12.40;56.30;99904.42;107567;1255;110697;-63
2024/02/05 11:53:43;;;;;;;;;;;;;;;12.41;56.74;99903.44;107575;1251;109883;-63
2024/02/05 11:56:11;;;;;;;;;;;;;;;12.37;55.56;99907.42;107518;1253;108179;-63
2024/02/05 11:58:40;;;;;;;;;;;;;;;12.30;55.08;99905.30;107600;1254;97818;-64
2024/02/05 12:01:12;;;;;;;;;;;;;;;12.27;55.18;99901.48;107554;1251;97940;-65
2024/02/05 12:03:40;;;;;;;;;;;;;;;12.27;55.12;99897.02;107567;1251;112828;-64
2024/02/05 12:06:09;;;;;;;;;;;;;;;12.34;55.71;99901.80;107572;1255;107181;-64
2024/02/05 12:08:38;;;;;;;;;;;;;;;12.42;55.37;99906.04;107550;1253;108683;-64
2024/02/05 12:11:06;;;;;;;;;;;;;;;12.47;55.55;99899.33;107577;1253;97899;-64
2024/02/05 12:13:35;;;;;;;;;;;;;;;12.50;55.33;99900.27;107485;1253;98518;-63
2024/02/05 12:16:10;;;;;;;;;;;;;;;12.56;55.51;99898.88;107584;1255;113683;-64
2024/02/05 12:18:40;;;;;;;;;;;;;;;12.70;55.99;99894.48;107615;1251;107042;-63
2024/02/05 12:21:13;;;;;;;;;;;;;;;12.85;56.31;99897.60;107503;1255;109050;-64
2024/02/05 12:23:41;;;;;;;;;;;;;;;12.98;56.55;99903.55;107605;1251;97838;-63
2024/02/05 12:26:09;;;;;;;;;;;;;;;13.07;56.28;99914.24;107510;1255;97836;-63
2024/02/05 12:28:40;;;;;;;;;;;;;;;13.09;55.43;99915.05;107559;1251;111248;-62
2024/02/05 12:31:08;;;;;;;;;;;;;;;13.06;55.37;99914.02;107595;1253;107694;-62
2024/02/05 12:33:37;;;;;;;;;;;;;;;12.97;54.93;99898.79;107605;1256;106606;-62
2024/02/05 12:36:07;;;;;;;;;;;;;;;12.93;54.99;99899.61;107571;1256;97826;-62
2024/02/05 12:38:35;;;;;;;;;;;;;;;12.97;54.62;99901.92;107542;1257;97833;-62